Sunday, November 23, 2014
05:56 UTC
  |  Log In   |  Register Free
Airport Search:

Bishop International Airport
(KFNT)

FAA data valid effective November 13, 2014 - January 08, 2015 (unless otherwise noted).

 
 
 
 
 
 
 
 
 
 
 
 
 
 

Current Aviation Weather for Bishop International Airport (KFNT)

The most recent METAR observation for KFNT was updated at: 0523
METAR Summary (Translated METAR)
KFNT
230515Z AUTO 20005KT 6SM BR BKN028 OVC060 09/07 A2991 RMK AO2 T00890067
KRNP
230514Z AUTO 21008KT 10SM SCT023 SCT060 09/07 A2989 RMK AO2 T00900073
(17.4 nm NW from KFNT)
KD95
230454Z AUTO 22007KT 7SM SCT026 SCT035 OVC055 08/06 A2991 RMK AO2 T00760063
(21.6 nm NE from KFNT)
TAF Summary (Translated TAF)
KFNT
222010Z 2220/2318 22012KT 4SM HZ OVC007 WS015/22040KT TEMPO 2220/2224 2SM -RA BR OVC004 FM230100 20012KT 4SM BR OVC015 WS015/22040KT FM231400 18007KT 2SM -RA BR OVC007
  Airport Weather Conditions for KFNT

 Current Weather at FNT
47° F
Fog/Mist
South winds at 6.9 mph
FNT NOAA Radar

Pressure: 29.91 in
Humidity: 90%
Wind: South at 6.9 MPH (6 KT)
Dew Point: 44.1°F
Visibility: 4.00 mi


Airport Weather Forecast for KFNT

Translated METAR and TAF for KFNT
Translated METAR for KFNT (0551 UTC 23 November 2014)
found at http://aviationweather.gov/adds/metars/
 
METAR text: KFNT 230528Z AUTO 19007KT 7SM SCT028 08/06 A2991 RMK AO2 T00830061
Conditions at: KFNT (FLINT , MI, US) observed 0528 UTC 23 November 2014
Temperature: 8.3°C (47°F)
Dewpoint: 6.1°C (43°F) [RH = 86%]
Pressure (altimeter): 29.91 inches Hg (1013.0 mb)
Winds: from the S (190 degrees) at 8 MPH (7 knots; 3.6 m/s)
Visibility: 7 miles (11 km)
Ceiling: at least 12,000 feet AGL
Clouds: scattered clouds at 2800 feet AGL
Weather: automated observation with no human augmentation;
there may or may not be significant weather present at this time
Translated TAF for KFNT
Forecast for: KFNT (FLINT , MI, US)
TAF Text: KFNT 230533Z 2306/2406 20010KT 4SM BR OVC025 WS015/22040KT
Forecast period: 0600 to 1400 UTC 23 November 2014
Forecast type: FROM: standard forecast or significant change
Winds: from the SSW (200 degrees) at 12 MPH (10 knots; 5.2 m/s)
Visibility: 4 miles (6 km)
Ceiling: 2500 feet AGL
Clouds: overcast cloud deck at 2500 feet AGL
Wind shear: at 1500 feet ( 457 m) AGL, from the SW (220 degrees) at 46 MPH (40 knots; 20.8 m/s)
Weather: BR  (mist)
TAF Text: FM231400 18007KT 4SM -RA BR OVC025
Forecast period: 1400 to 1900 UTC 23 November 2014
Forecast type: FROM: standard forecast or significant change
Winds: from the S (180 degrees) at 8 MPH (7 knots; 3.6 m/s)
Visibility: 4 miles (6 km)
Ceiling: 2500 feet AGL
Clouds: overcast cloud deck at 2500 feet AGL
Weather: -RA BR  (light rain, mist)
TAF Text: FM231900 16010KT 4SM -RA BR OVC015
Forecast period: 1900 UTC 23 November 2014 to 0000 UTC 24 November 2014
Forecast type: FROM: standard forecast or significant change
Winds: from the SSE (160 degrees) at 12 MPH (10 knots; 5.2 m/s)
Visibility: 4 miles (6 km)
Ceiling: 1500 feet AGL
Clouds: overcast cloud deck at 1500 feet AGL
Weather: -RA BR  (light rain, mist)
TAF Text: FM240000 14010KT 2SM RA BR OVC006
Forecast period: 0000 to 0600 UTC 24 November 2014
Forecast type: FROM: standard forecast or significant change
Winds: from the SE (140 degrees) at 12 MPH (10 knots; 5.2 m/s)
Visibility: 2.00 miles (3.22 km)
Ceiling: 600 feet AGL
Clouds: overcast cloud deck at 600 feet AGL
Weather: RA BR  (rain, mist)

Find All Airport Services Find A Hotel Find A Rental Car Find A Golf Course Find A Restaurant $100 Hamburger



FBO's on the Field
FBO Company Facility Photos Services Transportation Aviation Fuel Prices: Prices include tax
Catering Weather Repair Courtesy Rental Type 100LL JetA JetA+ MOGAS 8087
 
Avflight Flint

This FBO has not yet been rated
FS:Avfuel
Last Updated: Nov-17
Login to update fuel prices
SS:
Contact Avflight FlintMore FBO Information
 
Add another FBO Facility Photos Catering Weather Repair Courtesy Rental Type 100LL JetA JetA+ MOGAS 8087
Services Transportation Aviation Fuel Prices: Prices include tax


model-print
model-print
model-print
model-print